Terminal Aerodrome Forecast
Issued by NWS

Home | Current Version | Previous Version | Text Only | Print | Product List | Glossary Off
Versions: 1 2 3 4 5 6 7 8 9 10 11 12 13 14

000
FTUS43 KICT 241727
TAFRSL
TAF
KRSL 241727Z 2418/2518 19016G24KT P6SM BKN150
     FM250200 17016G24KT P6SM VCTS BKN050CB
     FM250400 17011KT P6SM VCTS BKN100CB
     FM250600 18009KT P6SM BKN150
     FM250900 18008KT P6SM SCT250=

USA.gov is the U.S. government's official web portal to all federal, state and local government web resources and services.